Time;durP1;ratioP1;P1;durP2;ratioP2;P2;SDS_P1;SDS_P2;PMS_P1;PMS_P2;Temp;Humidity;BMP_temperature;BMP_pressure;BME280_temperature;BME280_humidity;BME280_pressure;Samples;Min_cycle;Max_cycle;Signal;HPM_P1;HPM_P2
2022/05/17 00:00:17;;;;;;;4.90;2.63;;;23.20;54.40;;;;;;7375033;19;20030;-85
2022/05/17 00:02:46;;;;;;;6.35;2.53;;;23.10;54.50;;;;;;7374694;19;20015;-86
2022/05/17 00:05:15;;;;;;;4.30;2.33;;;23.10;54.60;;;;;;7397599;19;20014;-85
2022/05/17 00:07:44;;;;;;;6.47;2.38;;;23.10;54.50;;;;;;7377866;19;20014;-85
2022/05/17 00:10:13;;;;;;;5.60;2.60;;;23.10;54.60;;;;;;7380804;19;20014;-86
2022/05/17 00:12:45;;;;;;;6.40;2.13;;;23.10;54.50;;;;;;7379658;19;20453;-84
2022/05/17 00:15:13;;;;;;;5.90;2.25;;;23.10;54.70;;;;;;7375957;19;20034;-86
2022/05/17 00:17:42;;;;;;;7.15;2.47;;;23.10;54.80;;;;;;7376819;19;20022;-85
2022/05/17 00:20:13;;;;;;;5.47;2.53;;;23.10;54.80;;;;;;7395987;19;20014;-85
2022/05/17 00:22:43;;;;;;;7.30;2.47;;;23.00;55.00;;;;;;7375314;19;20089;-85
2022/05/17 00:25:17;;;;;;;7.82;2.42;;;23.00;55.00;;;;;;7372727;19;20018;-85
2022/05/17 00:27:49;;;;;;;5.63;2.55;;;23.00;54.80;;;;;;7376999;19;20698;-84
2022/05/17 00:30:17;;;;;;;;;;;23.00;54.90;;;;;;7373660;19;20006;-85
2022/05/17 00:32:46;;;;;;;6.10;2.60;;;23.00;55.10;;;;;;7371056;19;19922;-85
2022/05/17 00:35:15;;;;;;;9.00;2.95;;;22.90;55.10;;;;;;7392330;19;20014;-85
2022/05/17 00:37:45;;;;;;;5.75;2.85;;;22.80;55.60;;;;;;7371412;19;20007;-85
2022/05/17 00:40:16;;;;;;;4.75;2.33;;;22.80;55.40;;;;;;7370502;19;20019;-86
2022/05/17 00:42:44;;;;;;;6.95;2.55;;;22.80;55.20;;;;;;7374618;19;20010;-86
2022/05/17 00:45:17;;;;;;;8.05;3.00;;;22.80;55.00;;;;;;7376986;19;20010;-85
2022/05/17 00:47:50;;;;;;;3.58;2.42;;;22.80;55.20;;;;;;7376830;19;20000;-85
2022/05/17 00:50:29;;;;;;;5.80;2.75;;;22.80;55.40;;;;;;7400629;19;20014;-85
2022/05/17 00:53:02;;;;;;;6.53;2.67;;;22.80;55.40;;;;;;7377252;19;20019;-85
2022/05/17 00:55:36;;;;;;;5.18;2.63;;;22.80;55.40;;;;;;7374148;19;20007;-84
2022/05/17 00:58:10;;;;;;;5.55;3.17;;;22.80;55.40;;;;;;7373033;19;20082;-85
2022/05/17 01:00:47;;;;;;;7.15;2.70;;;22.90;55.40;;;;;;7379719;19;20593;-85
2022/05/17 01:03:19;;;;;;;4.50;2.50;;;22.80;55.30;;;;;;7378987;19;20527;-85
2022/05/17 01:05:52;;;;;;;4.40;2.58;;;22.80;55.30;;;;;;7379113;19;20011;-85
2022/05/17 01:08:23;;;;;;;6.63;2.80;;;22.90;56.30;;;;;;7400790;19;20027;-85
2022/05/17 01:10:55;;;;;;;6.30;2.60;;;22.90;55.90;;;;;;7380652;19;20014;-85
2022/05/17 01:16:09;;;;;;;4.28;2.47;;;22.80;55.40;;;;;;7380962;19;20014;-84
2022/05/17 01:18:41;;;;;;;7.80;2.22;;;22.80;55.70;;;;;;7375893;19;20018;-84
2022/05/17 01:21:14;;;;;;;4.03;2.67;;;22.80;55.80;;;;;;7384933;19;20007;-92
2022/05/17 01:23:43;;;;;;;7.93;2.30;;;22.70;55.50;;;;;;7398224;19;20027;-92
2022/05/17 01:26:17;;;;;;;4.18;2.40;;;22.70;55.40;;;;;;7416394;19;20010;-91
2022/05/17 01:28:46;;;;;;;8.50;2.88;;;22.70;55.30;;;;;;7400251;19;20013;-91
2022/05/17 01:31:16;;;;;;;5.18;2.88;;;22.70;55.70;;;;;;7391015;19;20030;-90
2022/05/17 01:33:45;;;;;;;4.82;2.53;;;22.60;55.70;;;;;;7390574;19;20018;-91
2022/05/17 01:36:22;;;;;;;7.32;3.22;;;22.60;55.70;;;;;;7387994;19;20015;-91
2022/05/17 01:38:53;;;;;;;11.23;2.97;;;22.60;56.00;;;;;;7403607;19;20020;-92
2022/05/17 01:41:25;;;;;;;6.53;2.80;;;22.60;55.90;;;;;;7417107;19;20021;-92
2022/05/17 01:43:54;;;;;;;7.57;3.00;;;22.50;55.90;;;;;;7400520;19;20014;-92
2022/05/17 01:46:30;;;;;;;5.90;3.25;;;22.60;56.10;;;;;;7405669;19;20003;-92
2022/05/17 01:49:00;;;;;;;6.97;3.33;;;22.50;56.10;;;;;;7410029;19;20025;-91
2022/05/17 01:51:35;;;;;;;7.28;2.90;;;22.40;56.10;;;;;;7408518;19;20010;-91
2022/05/17 01:54:04;;;;;;;4.63;2.70;;;22.40;56.60;;;;;;7405162;19;20018;-92
2022/05/17 01:56:37;;;;;;;6.10;2.85;;;22.30;56.60;;;;;;7399975;19;20014;-92
2022/05/17 01:59:12;;;;;;;5.55;2.75;;;22.30;56.70;;;;;;7424796;19;20031;-92
2022/05/17 02:01:45;;;;;;;5.80;2.60;;;22.30;56.80;;;;;;7400976;19;20013;-92
2022/05/17 02:04:18;;;;;;;3.03;2.25;;;22.20;57.00;;;;;;7402361;19;20029;-92
2022/05/17 02:06:50;;;;;;;4.45;2.30;;;22.20;57.00;;;;;;7397986;19;20002;-92
2022/05/17 02:09:19;;;;;;;5.30;2.30;;;22.20;57.20;;;;;;7407070;19;20062;-92
2022/05/17 02:11:49;;;;;;;5.60;2.63;;;22.20;57.10;;;;;;7404918;19;20010;-93
2022/05/17 02:14:18;;;;;;;3.08;2.47;;;22.20;57.00;;;;;;7423898;19;20010;-92
2022/05/17 02:16:47;;;;;;;6.75;2.55;;;22.20;57.10;;;;;;7403141;19;20018;-92
2022/05/17 02:19:20;;;;;;;5.25;2.60;;;22.20;57.10;;;;;;7402736;19;20113;-92
2022/05/17 02:21:52;;;;;;;6.18;2.75;;;22.20;56.90;;;;;;7403549;19;20010;-92
2022/05/17 02:24:27;;;;;;;5.22;2.50;;;22.20;57.00;;;;;;7403936;19;20030;-93
2022/05/17 02:27:00;;;;;;;5.85;2.53;;;22.20;57.20;;;;;;7405869;19;19991;-93
2022/05/17 02:29:30;;;;;;;4.50;2.50;;;22.20;57.20;;;;;;7404771;19;20032;-93
2022/05/17 02:32:00;;;;;;;10.50;2.80;;;22.20;57.20;;;;;;7426127;19;20003;-92
2022/05/17 02:34:31;;;;;;;5.07;2.63;;;22.20;57.40;;;;;;7401798;19;20014;-92
2022/05/17 02:37:03;;;;;;;3.05;2.47;;;22.20;57.40;;;;;;7400755;19;20006;-90
2022/05/17 02:39:32;;;;;;;5.65;2.92;;;22.20;57.50;;;;;;7385543;19;20034;-90
2022/05/17 02:42:01;;;;;;;6.95;2.97;;;22.20;57.40;;;;;;7381219;19;20014;-90
2022/05/17 02:44:31;;;;;;;7.20;2.78;;;22.20;57.50;;;;;;7382503;19;20013;-91
2022/05/17 02:46:59;;;;;;;6.43;2.67;;;22.20;57.50;;;;;;7398808;19;20014;-89
2022/05/17 02:49:28;;;;;;;6.43;2.70;;;22.10;57.60;;;;;;7376798;19;20014;-89
2022/05/17 02:51:57;;;;;;;7.00;2.60;;;22.10;57.80;;;;;;7375744;19;20044;-90
2022/05/17 02:54:29;;;;;;;3.63;2.58;;;22.10;57.80;;;;;;7374769;19;20011;-90
2022/05/17 02:56:58;;;;;;;8.50;3.05;;;22.10;57.90;;;;;;7378691;19;20455;-90
2022/05/17 02:59:27;;;;;;;8.45;3.00;;;22.10;57.90;;;;;;7376778;19;20027;-90
2022/05/17 03:01:56;;;;;;;4.38;2.38;;;22.10;57.50;;;;;;7400498;19;20143;-90
2022/05/17 03:04:27;;;;;;;5.60;3.00;;;22.10;57.50;;;;;;7382475;19;20034;-90
2022/05/17 03:06:57;;;;;;;4.45;2.97;;;22.10;57.60;;;;;;7384126;19;20007;-91
2022/05/17 03:09:29;;;;;;;7.07;2.97;;;22.20;57.70;;;;;;7391522;19;20015;-92
2022/05/17 03:12:02;;;;;;;6.55;2.78;;;22.10;57.60;;;;;;7385736;19;20031;-91
2022/05/17 03:14:31;;;;;;;8.05;3.20;;;22.10;57.70;;;;;;7388294;19;20010;-91
2022/05/17 03:17:01;;;;;;;7.38;3.25;;;22.10;57.80;;;;;;7418056;19;20002;-92
2022/05/17 03:19:34;;;;;;;6.15;2.88;;;22.00;57.80;;;;;;7401293;19;20003;-92
2022/05/17 03:22:03;;;;;;;5.28;2.85;;;22.00;57.70;;;;;;7401864;19;20050;-93
2022/05/17 03:24:34;;;;;;;5.72;2.72;;;22.00;57.90;;;;;;7397775;19;20007;-92
2022/05/17 03:27:04;;;;;;;4.72;3.00;;;21.90;57.90;;;;;;7396067;19;20010;-92
2022/05/17 03:29:33;;;;;;;8.60;2.75;;;21.90;58.00;;;;;;7384036;19;20324;-90
2022/05/17 03:42:09;;;;;;;5.18;2.58;;;21.70;58.10;;;;;;7421383;19;20007;-90
2022/05/17 03:52:59;;;;;;;6.05;3.42;;;21.70;58.10;;;;;;7220582;19;20078;-91
2022/05/17 04:11:03;;;;;;;4.85;2.58;;;21.60;58.10;;;;;;7379334;19;20053;-90
2022/05/17 04:17:15;;;;;;;7.03;3.40;;;21.60;58.10;;;;;;7393736;19;20014;-89
2022/05/17 04:19:47;;;;;;;9.15;3.33;;;21.50;58.10;;;;;;7371580;19;20566;-90
2022/05/17 04:22:16;;;;;;;5.28;3.60;;;21.50;58.40;;;;;;7370753;19;20018;-78
2022/05/17 04:24:45;;;;;;;6.07;3.10;;;21.40;58.60;;;;;;7364806;19;20022;-77
2022/05/17 04:27:16;;;;;;;7.90;3.25;;;21.40;58.70;;;;;;7368344;19;20010;-78
2022/05/17 04:29:45;;;;;;;13.55;3.10;;;21.30;58.60;;;;;;7370017;19;20474;-78
2022/05/17 04:32:13;;;;;;;7.35;2.92;;;21.30;58.40;;;;;;7390372;19;20026;-78
2022/05/17 04:34:42;;;;;;;7.45;3.10;;;21.40;58.60;;;;;;7364690;19;20014;-79
2022/05/17 04:37:11;;;;;;;5.65;3.08;;;21.40;58.60;;;;;;7368212;19;20010;-78
2022/05/17 04:39:40;;;;;;;11.70;3.30;;;21.40;58.50;;;;;;7369430;19;20544;-78
2022/05/17 04:42:10;;;;;;;6.97;3.40;;;21.40;58.60;;;;;;7365014;19;20090;-78
2022/05/17 04:44:41;;;;;;;7.68;3.30;;;21.40;58.60;;;;;;7366783;19;20018;-78
2022/05/17 04:47:10;;;;;;;;;;;21.40;58.60;;;;;;7390325;19;20134;-78
2022/05/17 04:49:39;;;;;;;5.13;3.05;;;21.40;58.10;;;;;;7367685;19;19918;-77
2022/05/17 04:52:09;;;;;;;5.20;2.67;;;21.40;58.00;;;;;;7368874;19;20014;-76
2022/05/17 04:54:38;;;;;;;7.63;3.78;;;21.40;58.30;;;;;;7368050;19;20015;-77
2022/05/17 04:57:07;;;;;;;6.28;3.40;;;21.40;58.50;;;;;;7368994;19;20109;-79
2022/05/17 04:59:36;;;;;;;496.80;411.05;;;21.40;58.60;;;;;;7364494;19;20302;-78
2022/05/17 05:02:09;;;;;;;214.18;171.73;;;21.40;58.60;;;;;;7388451;19;20128;-78
2022/05/17 05:04:39;;;;;;;59.83;43.90;;;21.40;58.50;;;;;;7367336;19;20007;-78
2022/05/17 05:07:08;;;;;;;14.82;8.93;;;21.50;58.70;;;;;;7368030;19;20026;-77
2022/05/17 05:09:37;;;;;;;8.75;4.07;;;21.50;58.60;;;;;;7369664;19;20086;-78
2022/05/17 05:12:07;;;;;;;9.30;5.82;;;21.50;58.50;;;;;;7367058;19;20463;-77
2022/05/17 05:14:36;;;;;;;8.38;4.57;;;21.50;58.60;;;;;;7366522;19;20015;-77
2022/05/17 05:17:11;;;;;;;5.50;3.92;;;21.60;58.60;;;;;;7387983;19;20015;-76
2022/05/17 05:19:40;;;;;;;7.38;3.13;;;21.60;58.70;;;;;;7364346;19;20044;-77
2022/05/17 05:22:08;;;;;;;10.20;3.55;;;21.70;58.60;;;;;;7367139;19;20010;-78
2022/05/17 05:24:37;;;;;;;14.15;4.38;;;21.80;58.60;;;;;;7370653;19;20024;-84
2022/05/17 05:27:07;;;;;;;8.02;3.55;;;21.80;58.70;;;;;;7373188;19;20021;-83
2022/05/17 05:29:36;;;;;;;10.35;3.85;;;21.80;58.80;;;;;;7392366;19;20496;-79
2022/05/17 05:32:09;;;;;;;18.85;5.22;;;21.90;58.90;;;;;;7414612;19;20441;-83
2022/05/17 05:34:38;;;;;;;28.35;16.48;;;21.90;59.00;;;;;;7378089;19;20374;-81
2022/05/17 05:37:07;;;;;;;33.58;26.52;;;21.90;59.00;;;;;;7373589;19;20028;-77
2022/05/17 05:39:36;;;;;;;21.38;5.97;;;21.80;59.10;;;;;;7370988;19;20014;-79
2022/05/17 05:42:07;;;;;;;11.75;4.35;;;21.80;59.20;;;;;;7371059;19;20827;-81
2022/05/17 05:44:36;;;;;;;9.25;3.95;;;21.80;59.40;;;;;;7369398;19;20185;-79
2022/05/17 05:47:08;;;;;;;6.55;3.67;;;21.80;59.50;;;;;;7393890;19;20382;-79
2022/05/17 05:49:36;;;;;;;12.05;4.07;;;21.80;59.50;;;;;;7373630;19;20196;-77
2022/05/17 05:52:05;;;;;;;5.45;3.30;;;21.80;59.50;;;;;;7373594;19;20122;-75
2022/05/17 05:54:34;;;;;;;11.32;3.63;;;21.90;59.50;;;;;;7370052;19;20021;-75
2022/05/17 05:57:03;;;;;;;9.65;3.78;;;22.00;59.30;;;;;;7373658;19;20014;-75
2022/05/17 05:59:33;;;;;;;11.43;3.70;;;22.00;59.30;;;;;;7372942;19;20627;-76
2022/05/17 06:02:02;;;;;;;9.48;3.42;;;22.00;59.30;;;;;;7390821;19;20497;-76
2022/05/17 06:04:33;;;;;;;17.50;3.40;;;22.10;59.20;;;;;;7372192;19;20627;-76
2022/05/17 06:07:02;;;;;;;10.55;3.42;;;22.10;59.30;;;;;;7372772;19;20043;-76
2022/05/17 06:09:32;;;;;;;157.93;97.43;;;22.10;59.40;;;;;;7373133;19;20031;-77
2022/05/17 06:12:00;;;;;;;22.40;12.82;;;22.10;60.30;;;;;;7369906;19;20110;-76
2022/05/17 06:14:33;;;;;;;6.80;4.03;;;22.20;59.60;;;;;;7368502;19;20035;-76
2022/05/17 06:17:01;;;;;;;11.05;5.50;;;22.20;59.60;;;;;;7389986;19;20082;-75
2022/05/17 06:19:34;;;;;;;10.27;4.50;;;22.20;59.60;;;;;;7371227;19;20018;-76
2022/05/17 06:22:03;;;;;;;17.17;6.30;;;22.30;59.60;;;;;;7371264;19;20018;-76
2022/05/17 06:24:32;;;;;;;11.73;4.45;;;22.40;60.30;;;;;;7373623;19;20414;-77
2022/05/17 06:27:00;;;;;;;8.35;4.50;;;22.40;59.50;;;;;;7370725;19;20014;-77
2022/05/17 06:29:29;;;;;;;9.40;4.13;;;22.50;59.20;;;;;;7371992;19;20020;-77
2022/05/17 06:31:57;;;;;;;10.65;4.47;;;22.50;59.00;;;;;;7388549;19;20090;-77
2022/05/17 06:34:26;;;;;;;9.80;4.55;;;22.60;58.90;;;;;;7369719;19;20043;-77
2022/05/17 06:36:57;;;;;;;12.20;4.43;;;22.70;58.80;;;;;;7371028;19;20016;-78
2022/05/17 06:39:29;;;;;;;;;;;22.70;58.80;;;;;;7371039;19;20014;-76
2022/05/17 06:41:58;;;;;;;16.25;5.65;;;22.80;58.70;;;;;;7372476;19;19929;-76
2022/05/17 06:44:26;;;;;;;19.67;5.47;;;22.80;58.70;;;;;;7370409;19;20581;-77
2022/05/17 06:46:56;;;;;;;11.93;4.93;;;22.90;59.00;;;;;;7391083;19;20018;-76
2022/05/17 06:49:26;;;;;;;16.38;5.40;;;22.90;59.00;;;;;;7368972;19;20457;-76
2022/05/17 06:51:59;;;;;;;24.77;5.63;;;23.00;59.20;;;;;;7369834;19;20679;-76
2022/05/17 06:54:28;;;;;;;11.32;4.57;;;23.00;59.10;;;;;;7370665;19;20017;-77
2022/05/17 06:56:56;;;;;;;11.45;4.32;;;23.10;59.00;;;;;;7369152;19;20035;-76
2022/05/17 06:59:25;;;;;;;10.10;3.72;;;23.20;58.80;;;;;;7378083;19;20774;-77
2022/05/17 07:01:54;;;;;;;5.45;3.30;;;23.20;58.40;;;;;;7390386;19;20756;-77
2022/05/17 07:04:22;;;;;;;11.75;3.72;;;23.30;58.10;;;;;;7370048;19;20016;-77
2022/05/17 07:06:51;;;;;;;10.48;3.83;;;23.40;57.70;;;;;;7367478;19;20073;-77
2022/05/17 07:09:22;;;;;;;7.18;3.08;;;23.40;57.70;;;;;;7370390;19;20013;-77
2022/05/17 07:14:32;;;;;;;7.45;2.72;;;23.50;56.00;;;;;;7369105;19;20230;-77
2022/05/17 07:17:00;;;;;;;6.50;2.95;;;23.50;55.40;;;;;;7389766;19;20075;-76
2022/05/17 07:19:29;;;;;;;7.57;2.80;;;23.50;55.00;;;;;;7369253;19;20013;-77
2022/05/17 07:21:58;;;;;;;6.38;2.40;;;23.60;54.70;;;;;;7370042;19;20019;-76
2022/05/17 07:24:30;;;;;;;6.40;2.50;;;23.60;54.60;;;;;;7368591;19;20093;-76
2022/05/17 07:26:59;;;;;;;6.35;2.00;;;23.70;54.80;;;;;;7367272;19;20019;-76
2022/05/17 07:29:28;;;;;;;8.65;2.30;;;23.70;54.30;;;;;;7366373;19;20022;-76
2022/05/17 07:31:58;;;;;;;3.50;1.90;;;23.70;54.10;;;;;;7389213;19;20429;-77
2022/05/17 07:34:27;;;;;;;7.13;2.17;;;23.80;54.20;;;;;;7370380;19;20021;-77
2022/05/17 07:36:56;;;;;;;7.57;1.60;;;23.90;54.00;;;;;;7370544;19;20046;-75
2022/05/17 07:39:25;;;;;;;37.03;22.30;;;23.80;50.80;;;;;;7367355;19;20118;-77
2022/05/17 07:41:56;;;;;;;76.18;49.25;;;23.90;51.40;;;;;;7370042;19;20018;-76
2022/05/17 07:44:25;;;;;;;;;;;24.00;52.20;;;;;;7379988;19;20315;-76
2022/05/17 07:46:53;;;;;;;9.23;4.13;;;24.10;52.70;;;;;;7389600;19;19972;-75
2022/05/17 07:49:22;;;;;;;10.52;3.20;;;24.10;52.50;;;;;;7366941;19;20493;-74
2022/05/17 07:51:52;;;;;;;7.65;2.00;;;24.10;52.00;;;;;;7368324;19;20098;-76
2022/05/17 07:54:21;;;;;;;4.13;1.77;;;24.20;51.50;;;;;;7368219;19;20135;-76
2022/05/17 07:56:50;;;;;;;6.68;1.70;;;24.20;51.00;;;;;;7366943;19;20010;-73
2022/05/17 07:59:24;;;;;;;6.82;1.77;;;24.20;48.80;;;;;;7389426;19;20081;-74
2022/05/17 08:01:53;;;;;;;6.82;1.90;;;24.20;48.50;;;;;;7365848;19;20098;-74
2022/05/17 08:04:23;;;;;;;6.70;1.90;;;24.30;47.70;;;;;;7366661;19;20011;-74
2022/05/17 08:06:52;;;;;;;11.10;2.10;;;24.30;47.70;;;;;;7366217;19;20035;-74
2022/05/17 08:09:20;;;;;;;8.07;1.75;;;24.30;47.70;;;;;;7366047;19;20158;-74
2022/05/17 08:11:49;;;;;;;8.48;1.70;;;24.30;47.90;;;;;;7365831;19;20383;-74
2022/05/17 08:14:21;;;;;;;7.18;2.05;;;24.40;47.40;;;;;;7388100;19;20078;-75
2022/05/17 08:16:50;;;;;;;5.05;1.92;;;24.40;47.90;;;;;;7364941;19;20429;-75
2022/05/17 08:19:18;;;;;;;5.65;1.40;;;24.40;47.10;;;;;;7365466;19;20014;-75
2022/05/17 08:21:47;;;;;;;13.52;1.70;;;24.40;46.70;;;;;;7367465;19;20517;-75
2022/05/17 08:24:16;;;;;;;5.43;1.50;;;24.50;46.70;;;;;;7366739;19;20078;-74
2022/05/17 08:29:28;;;;;;;8.05;1.63;;;24.50;45.30;;;;;;7372926;19;20023;-77
2022/05/17 08:34:40;;;;;;;8.25;1.65;;;24.60;44.00;;;;;;7363712;19;20022;-76
2022/05/17 08:37:09;;;;;;;5.43;1.80;;;24.60;44.30;;;;;;7361763;19;20477;-75
2022/05/17 08:39:37;;;;;;;6.43;1.55;;;24.60;43.10;;;;;;7364995;19;20097;-76
2022/05/17 08:42:16;;;;;;;4.65;1.60;;;24.70;43.40;;;;;;7363899;19;20054;-77
2022/05/17 08:44:53;;;;;;;6.28;1.80;;;24.70;43.80;;;;;;7358770;19;20403;-75
2022/05/17 08:47:29;;;;;;;5.65;1.52;;;24.70;44.00;;;;;;7386068;19;20021;-76
2022/05/17 08:50:01;;;;;;;5.03;1.50;;;24.70;44.10;;;;;;7363635;19;20010;-76
2022/05/17 08:52:32;;;;;;;9.35;1.77;;;24.70;43.40;;;;;;7363325;19;20070;-75
2022/05/17 08:55:05;;;;;;;8.88;1.58;;;24.80;42.90;;;;;;7364197;19;20706;-74
2022/05/17 08:57:40;;;;;;;6.05;1.60;;;24.80;43.20;;;;;;7362308;19;20011;-75
2022/05/17 09:00:20;;;;;;;7.80;1.85;;;24.80;42.90;;;;;;7364556;19;20049;-75
2022/05/17 09:02:54;;;;;;;10.07;1.80;;;24.90;43.90;;;;;;7360299;19;20034;-75
2022/05/17 09:05:36;;;;;;;7.35;1.60;;;24.90;43.90;;;;;;7381794;19;20018;-75
2022/05/17 09:08:19;;;;;;;5.72;1.60;;;24.90;42.70;;;;;;7363712;19;20017;-73
2022/05/17 09:10:52;;;;;;;8.00;1.80;;;25.00;42.00;;;;;;7362186;19;20007;-75
2022/05/17 09:13:27;;;;;;;8.40;1.63;;;25.00;41.70;;;;;;7365689;19;20785;-75
2022/05/17 09:16:00;;;;;;;5.88;1.58;;;25.00;40.80;;;;;;7365584;19;20874;-75
2022/05/17 09:18:32;;;;;;;11.38;1.58;;;25.00;41.80;;;;;;7366504;19;20106;-75
2022/05/17 09:21:01;;;;;;;8.68;1.45;;;25.10;42.20;;;;;;7365581;19;20007;-75
2022/05/17 09:23:29;;;;;;;6.55;1.35;;;25.10;41.80;;;;;;7372367;19;20019;-75
2022/05/17 09:26:10;;;;;;;5.05;1.63;;;25.20;41.40;;;;;;7395255;19;20280;-75
2022/05/17 09:28:50;;;;;;;5.40;1.30;;;25.10;41.20;;;;;;7379953;19;20010;-75
2022/05/17 09:31:32;;;;;;;4.03;1.27;;;25.10;40.30;;;;;;7377996;19;20228;-75
2022/05/17 09:34:03;;;;;;;6.85;1.70;;;25.10;40.90;;;;;;7376152;19;20015;-75
2022/05/17 09:36:43;;;;;;;6.43;1.67;;;25.20;41.10;;;;;;7371192;19;20482;-75
2022/05/17 09:39:12;;;;;;;3.42;1.50;;;25.20;41.10;;;;;;7372093;19;20011;-75
2022/05/17 09:41:43;;;;;;;7.63;1.50;;;25.20;39.80;;;;;;7370837;19;20022;-75
2022/05/17 09:44:14;;;;;;;7.03;1.58;;;25.20;40.60;;;;;;7391172;19;20082;-76
2022/05/17 09:46:52;;;;;;;11.20;1.70;;;25.30;41.40;;;;;;7369664;19;20014;-75
2022/05/17 09:54:53;;;;;;;5.85;1.80;;;25.40;40.60;;;;;;7372716;19;20419;-73
2022/05/17 09:57:25;;;;;;;7.03;2.13;;;25.50;40.40;;;;;;7371327;19;20007;-74
2022/05/17 09:59:56;;;;;;;6.75;1.77;;;25.50;40.60;;;;;;7368508;19;20038;-75
2022/05/17 10:02:54;;;;;;;8.73;1.75;;;25.60;41.00;;;;;;7385988;19;20790;-76
2022/05/17 10:05:25;;;;;;;7.72;1.95;;;25.60;40.90;;;;;;7389362;19;20450;-75
2022/05/17 10:08:01;;;;;;;6.05;1.80;;;25.70;41.10;;;;;;7371093;19;20052;-75
2022/05/17 10:10:35;;;;;;;7.60;2.20;;;25.80;41.30;;;;;;7367342;19;20368;-75
2022/05/17 10:13:14;;;;;;;5.88;2.13;;;25.80;40.70;;;;;;7371348;19;20045;-76
2022/05/17 10:15:49;;;;;;;6.53;1.80;;;25.80;40.80;;;;;;7371122;19;20199;-75
2022/05/17 10:18:35;;;;;;;5.55;1.65;;;25.90;40.70;;;;;;7370837;19;20090;-75
2022/05/17 10:21:13;;;;;;;7.18;1.90;;;25.90;40.50;;;;;;7368932;19;20397;-75
2022/05/17 10:23:49;;;;;;;8.27;1.60;;;26.00;40.70;;;;;;7369121;19;20013;-75
2022/05/17 10:26:23;;;;;;;7.63;1.73;;;26.10;40.60;;;;;;7393304;19;20334;-75
2022/05/17 10:28:56;;;;;;;5.72;2.03;;;26.10;40.60;;;;;;7369627;19;20306;-75
2022/05/17 10:31:32;;;;;;;5.00;2.88;;;26.20;41.10;;;;;;7369464;19;20010;-75
2022/05/17 10:34:20;;;;;;;4.13;1.88;;;26.30;41.00;;;;;;7371408;19;20028;-75
2022/05/17 10:36:52;;;;;;;3.58;1.58;;;26.30;40.80;;;;;;7366320;19;20124;-75
2022/05/17 10:39:30;;;;;;;5.65;2.13;;;26.40;40.80;;;;;;7371604;19;20058;-75
2022/05/17 10:41:59;;;;;;;6.93;1.95;;;26.40;40.90;;;;;;7370021;19;20011;-74
2022/05/17 10:44:40;;;;;;;6.05;2.33;;;26.50;41.10;;;;;;7367068;19;20022;-76
2022/05/17 10:47:25;;;;;;;3.95;1.80;;;26.50;40.60;;;;;;7389715;19;20070;-75
2022/05/17 10:50:11;;;;;;;8.77;2.20;;;26.50;40.70;;;;;;7368287;19;20044;-75
2022/05/17 10:52:51;;;;;;;3.80;1.83;;;26.60;41.00;;;;;;7369376;19;20010;-74
2022/05/17 10:55:26;;;;;;;9.40;1.98;;;26.60;41.00;;;;;;7368540;19;20032;-74
2022/05/17 10:58:00;;;;;;;8.38;2.50;;;26.70;40.80;;;;;;7370777;19;20581;-75
2022/05/17 11:00:35;;;;;;;41.33;33.25;;;26.80;41.50;;;;;;7368162;19;20353;-74
2022/05/17 11:03:34;;;;;;;15.40;9.57;;;26.90;41.30;;;;;;7368628;19;20392;-76
2022/05/17 11:06:20;;;;;;;8.60;5.05;;;26.90;41.50;;;;;;7369578;19;20070;-75
2022/05/17 11:08:58;;;;;;;8.95;2.63;;;26.80;41.60;;;;;;7367812;19;20018;-74
2022/05/17 11:11:42;;;;;;;6.38;2.85;;;26.80;41.30;;;;;;7365895;19;20070;-75
2022/05/17 11:14:15;;;;;;;4.60;1.90;;;26.80;41.60;;;;;;7390308;19;20097;-74
2022/05/17 11:16:54;;;;;;;6.93;1.83;;;26.80;41.50;;;;;;7369713;19;20019;-77
2022/05/17 11:19:29;;;;;;;8.32;1.98;;;26.80;41.20;;;;;;7369171;19;20018;-82
2022/05/17 11:22:05;;;;;;;6.30;2.13;;;26.70;41.60;;;;;;7371672;19;20106;-79
2022/05/17 11:24:54;;;;;;;7.28;2.20;;;26.90;42.00;;;;;;7366911;19;20022;-79
2022/05/17 11:27:39;;;;;;;6.65;1.90;;;27.00;42.40;;;;;;7370399;19;20015;-79
2022/05/17 11:30:17;;;;;;;10.15;2.15;;;27.30;42.50;;;;;;7369115;19;20018;-79
2022/05/17 11:33:15;;;;;;;6.15;2.22;;;27.40;42.40;;;;;;7370142;19;20033;-80
2022/05/17 11:35:54;;;;;;;9.05;2.08;;;27.60;42.10;;;;;;7370669;19;20022;-79
2022/05/17 11:38:53;;;;;;;5.22;2.00;;;27.70;41.40;;;;;;7391731;19;20051;-79
2022/05/17 11:41:43;;;;;;;4.45;1.88;;;27.80;41.10;;;;;;7268026;19;2004726;-79
2022/05/17 11:44:22;;;;;;;4.57;1.83;;;27.90;41.30;;;;;;7391301;19;20021;-80
2022/05/17 11:46:54;;;;;;;4.03;2.20;;;28.00;41.20;;;;;;7367772;19;20015;-79
2022/05/17 11:49:32;;;;;;;6.90;2.15;;;28.10;41.00;;;;;;7369043;19;20014;-79
2022/05/17 11:52:36;;;;;;;7.72;2.55;;;28.10;40.90;;;;;;7368935;19;20744;-79
2022/05/17 11:55:13;;;;;;;6.68;2.47;;;28.20;41.30;;;;;;7371878;19;20445;-79
2022/05/17 11:58:05;;;;;;;3.15;1.88;;;28.30;41.20;;;;;;7368764;19;20450;-78
2022/05/17 12:00:53;;;;;;;4.75;1.98;;;28.40;41.30;;;;;;7369298;19;20015;-78
2022/05/17 12:04:01;;;;;;;5.68;2.13;;;28.50;40.70;;;;;;7365999;19;20018;-78
2022/05/17 12:06:51;;;;;;;9.93;2.30;;;28.50;40.30;;;;;;7366662;19;20036;-78
2022/05/17 12:09:35;;;;;;;7.93;2.30;;;28.50;40.50;;;;;;7367646;19;20014;-77
2022/05/17 12:12:30;;;;;;;5.93;2.03;;;28.50;40.20;;;;;;7369068;19;20368;-77
2022/05/17 12:15:18;;;;;;;6.75;2.10;;;28.60;40.40;;;;;;7368983;19;20018;-78
2022/05/17 12:18:01;;;;;;;7.78;2.00;;;28.60;40.20;;;;;;7368958;19;20019;-77
2022/05/17 12:20:41;;;;;;;5.40;2.15;;;28.70;40.90;;;;;;7367917;19;20020;-78
2022/05/17 12:23:18;;;;;;;4.07;1.90;;;28.80;40.80;;;;;;7388839;19;20078;-75
2022/05/17 12:25:55;;;;;;;8.40;2.15;;;29.00;40.50;;;;;;7367241;19;20109;-78
2022/05/17 12:28:33;;;;;;;7.70;2.25;;;29.00;40.60;;;;;;7367662;19;20010;-78
2022/05/17 12:31:01;;;;;;;3.83;2.03;;;29.00;40.40;;;;;;7368031;19;20112;-77
2022/05/17 12:33:33;;;;;;;4.18;2.05;;;28.90;40.20;;;;;;7366745;19;20029;-78
2022/05/17 12:36:16;;;;;;;8.02;1.88;;;28.80;40.10;;;;;;7366192;19;20031;-78
2022/05/17 12:44:24;;;;;;;6.15;1.83;;;28.70;41.80;;;;;;7388067;19;20022;-79
2022/05/17 12:46:58;;;;;;;5.60;1.98;;;28.80;41.70;;;;;;7368437;19;20059;-78
2022/05/17 12:49:28;;;;;;;6.72;1.83;;;28.90;41.40;;;;;;7368492;19;20011;-78
2022/05/17 12:52:00;;;;;;;4.30;1.77;;;29.00;41.60;;;;;;7367705;19;20540;-79
2022/05/17 12:54:33;;;;;;;6.47;1.92;;;29.10;41.10;;;;;;7369186;19;20031;-78
2022/05/17 12:57:02;;;;;;;10.00;2.22;;;29.20;40.80;;;;;;7371882;19;20021;-79
2022/05/17 12:59:36;;;;;;;5.35;2.10;;;29.10;41.20;;;;;;7373296;19;20094;-78
2022/05/17 13:02:05;;;;;;;6.13;2.20;;;29.10;41.60;;;;;;7395160;19;20022;-78
2022/05/17 13:04:36;;;;;;;5.38;2.13;;;29.20;41.80;;;;;;7373969;19;20013;-81
2022/05/17 13:07:14;;;;;;;4.70;2.25;;;29.10;41.30;;;;;;7375257;19;20090;-79
2022/05/17 13:09:57;;;;;;;6.40;1.92;;;29.00;41.40;;;;;;7373750;19;20014;-78
2022/05/17 13:12:28;;;;;;;8.60;2.00;;;29.00;41.80;;;;;;7374032;19;20081;-80
2022/05/17 13:14:59;;;;;;;;;;;29.10;41.70;;;;;;7373284;19;20144;-79
2022/05/17 13:17:33;;;;;;;5.13;2.17;;;29.30;41.80;;;;;;7372773;19;19946;-78
2022/05/17 13:20:12;;;;;;;5.68;2.17;;;29.50;41.20;;;;;;7394111;19;20023;-79
2022/05/17 13:22:44;;;;;;;4.80;2.00;;;29.50;40.30;;;;;;7373700;19;20493;-78
2022/05/17 13:25:19;;;;;;;4.68;1.92;;;29.60;40.10;;;;;;7372470;19;20078;-78
2022/05/17 13:27:50;;;;;;;3.45;1.90;;;29.70;40.20;;;;;;7373898;19;20015;-79
2022/05/17 13:30:33;;;;;;;6.75;1.80;;;29.80;39.70;;;;;;7372164;19;20078;-78
2022/05/17 13:33:02;;;;;;;3.75;1.75;;;29.80;39.90;;;;;;7381047;19;20007;-79
2022/05/17 13:35:33;;;;;;;4.38;2.15;;;29.80;39.80;;;;;;7376368;19;20022;-79
2022/05/17 13:38:08;;;;;;;3.65;1.83;;;29.90;40.10;;;;;;7400656;19;20074;-78
2022/05/17 13:40:47;;;;;;;7.80;2.60;;;29.90;40.00;;;;;;7374084;19;20026;-79
2022/05/17 13:43:33;;;;;;;4.82;2.10;;;29.90;40.40;;;;;;7373576;19;20022;-79
2022/05/17 13:46:14;;;;;;;5.35;1.88;;;29.90;40.80;;;;;;7375059;19;20322;-79
2022/05/17 13:48:55;;;;;;;5.35;1.90;;;30.00;40.60;;;;;;7373114;19;20102;-80
2022/05/17 13:51:28;;;;;;;5.32;2.00;;;30.00;40.20;;;;;;7372634;19;20041;-79
2022/05/17 13:54:00;;;;;;;7.18;2.10;;;30.10;40.20;;;;;;7370839;19;20050;-79
2022/05/17 13:56:35;;;;;;;4.93;1.80;;;30.00;39.80;;;;;;7369846;19;20022;-79
2022/05/17 13:59:06;;;;;;;5.93;1.90;;;30.00;39.70;;;;;;7390697;19;20106;-79
2022/05/17 14:01:40;;;;;;;6.05;1.92;;;30.00;39.90;;;;;;7370627;19;20010;-79
2022/05/17 14:04:13;;;;;;;10.68;2.20;;;30.10;40.20;;;;;;7370860;19;20019;-79
2022/05/17 14:06:50;;;;;;;11.00;3.90;;;30.20;39.70;;;;;;7373004;19;20017;-79
2022/05/17 14:12:02;;;;;;;4.22;2.00;;;30.20;39.90;;;;;;7372379;19;20562;-79
2022/05/17 14:14:31;;;;;;;5.68;2.20;;;30.20;39.80;;;;;;7368324;19;20017;-79
2022/05/17 14:17:06;;;;;;;7.47;2.15;;;30.20;40.10;;;;;;7392908;19;20074;-77